sensor_id;sensor_type;location;lat;lon;timestamp;temperature;humidity
29321;DHT22;16323;51.130;6.612;2023-01-08T00:02:25;18.20;79.30
29321;DHT22;16323;51.130;6.612;2023-01-08T00:04:53;18.20;79.40
29321;DHT22;16323;51.130;6.612;2023-01-08T00:07:20;18.20;80.30
29321;DHT22;16323;51.130;6.612;2023-01-08T00:09:47;18.20;79.30
29321;DHT22;16323;51.130;6.612;2023-01-08T00:12:15;18.20;79.20
29321;DHT22;16323;51.130;6.612;2023-01-08T00:14:41;18.30;79.40
29321;DHT22;16323;51.130;6.612;2023-01-08T00:17:08;18.20;79.10
29321;DHT22;16323;51.130;6.612;2023-01-08T00:19:35;18.20;79.10
29321;DHT22;16323;51.130;6.612;2023-01-08T00:22:03;18.20;78.80
29321;DHT22;16323;51.130;6.612;2023-01-08T00:24:30;18.20;78.50
29321;DHT22;16323;51.130;6.612;2023-01-08T00:26:56;18.20;78.60
29321;DHT22;16323;51.130;6.612;2023-01-08T00:29:23;18.20;78.50
29321;DHT22;16323;51.130;6.612;2023-01-08T00:31:51;18.20;78.50
29321;DHT22;16323;51.130;6.612;2023-01-08T00:34:17;18.20;78.40
29321;DHT22;16323;51.130;6.612;2023-01-08T00:36:44;18.20;78.50
29321;DHT22;16323;51.130;6.612;2023-01-08T00:39:12;18.20;78.40
29321;DHT22;16323;51.130;6.612;2023-01-08T00:41:39;18.20;78.60
29321;DHT22;16323;51.130;6.612;2023-01-08T00:44:08;18.20;78.50
29321;DHT22;16323;51.130;6.612;2023-01-08T00:46:35;18.20;78.20
29321;DHT22;16323;51.130;6.612;2023-01-08T00:49:02;18.10;78.40
29321;DHT22;16323;51.130;6.612;2023-01-08T00:51:29;18.10;78.60
29321;DHT22;16323;51.130;6.612;2023-01-08T00:53:55;18.10;78.50
29321;DHT22;16323;51.130;6.612;2023-01-08T00:56:26;18.10;78.60
29321;DHT22;16323;51.130;6.612;2023-01-08T00:58:52;18.10;78.50
29321;DHT22;16323;51.130;6.612;2023-01-08T01:01:19;18.10;78.70
29321;DHT22;16323;51.130;6.612;2023-01-08T01:03:46;18.10;78.60
29321;DHT22;16323;51.130;6.612;2023-01-08T01:06:13;18.10;78.50
29321;DHT22;16323;51.130;6.612;2023-01-08T01:08:40;18.10;78.90
29321;DHT22;16323;51.130;6.612;2023-01-08T01:11:11;18.10;78.80
29321;DHT22;16323;51.130;6.612;2023-01-08T01:13:40;18.10;78.60
29321;DHT22;16323;51.130;6.612;2023-01-08T01:16:07;18.10;78.70
29321;DHT22;16323;51.130;6.612;2023-01-08T01:18:34;18.10;78.80
29321;DHT22;16323;51.130;6.612;2023-01-08T01:21:07;18.20;78.80
29321;DHT22;16323;51.130;6.612;2023-01-08T01:23:35;18.20;78.70
29321;DHT22;16323;51.130;6.612;2023-01-08T01:26:01;18.20;78.40
29321;DHT22;16323;51.130;6.612;2023-01-08T01:28:28;18.10;78.40
29321;DHT22;16323;51.130;6.612;2023-01-08T01:30:57;18.20;78.30
29321;DHT22;16323;51.130;6.612;2023-01-08T01:33:23;18.10;78.10
29321;DHT22;16323;51.130;6.612;2023-01-08T01:35:58;18.10;78.00
29321;DHT22;16323;51.130;6.612;2023-01-08T01:38:25;18.10;78.00
29321;DHT22;16323;51.130;6.612;2023-01-08T01:40:52;18.10;78.10
29321;DHT22;16323;51.130;6.612;2023-01-08T01:43:35;18.10;78.00
29321;DHT22;16323;51.130;6.612;2023-01-08T01:46:17;18.10;78.20
29321;DHT22;16323;51.130;6.612;2023-01-08T01:48:46;18.10;78.00
29321;DHT22;16323;51.130;6.612;2023-01-08T01:51:14;18.10;77.90
29321;DHT22;16323;51.130;6.612;2023-01-08T01:53:40;18.10;78.10
29321;DHT22;16323;51.130;6.612;2023-01-08T01:56:07;18.10;78.00
29321;DHT22;16323;51.130;6.612;2023-01-08T01:58:35;18.20;78.30
29321;DHT22;16323;51.130;6.612;2023-01-08T02:01:05;18.10;78.20
29321;DHT22;16323;51.130;6.612;2023-01-08T02:03:34;18.20;78.60
29321;DHT22;16323;51.130;6.612;2023-01-08T02:06:07;18.20;78.40
29321;DHT22;16323;51.130;6.612;2023-01-08T02:08:44;18.20;78.40
29321;DHT22;16323;51.130;6.612;2023-01-08T02:11:18;18.20;78.40
29321;DHT22;16323;51.130;6.612;2023-01-08T02:13:52;18.20;78.40
29321;DHT22;16323;51.130;6.612;2023-01-08T02:16:27;18.20;78.60
29321;DHT22;16323;51.130;6.612;2023-01-08T02:18:56;18.20;78.50
29321;DHT22;16323;51.130;6.612;2023-01-08T02:21:31;18.20;78.40
29321;DHT22;16323;51.130;6.612;2023-01-08T02:24:02;18.30;78.60
29321;DHT22;16323;51.130;6.612;2023-01-08T02:26:34;18.20;78.20
29321;DHT22;16323;51.130;6.612;2023-01-08T02:29:05;18.20;78.00
29321;DHT22;16323;51.130;6.612;2023-01-08T02:31:34;18.20;77.70
29321;DHT22;16323;51.130;6.612;2023-01-08T02:34:16;18.20;77.80
29321;DHT22;16323;51.130;6.612;2023-01-08T02:36:44;18.20;77.80
29321;DHT22;16323;51.130;6.612;2023-01-08T02:39:20;18.20;77.70
29321;DHT22;16323;51.130;6.612;2023-01-08T02:42:05;18.20;77.80
29321;DHT22;16323;51.130;6.612;2023-01-08T02:44:49;18.20;77.80
29321;DHT22;16323;51.130;6.612;2023-01-08T02:47:23;18.20;77.70
29321;DHT22;16323;51.130;6.612;2023-01-08T02:49:56;18.10;77.80
29321;DHT22;16323;51.130;6.612;2023-01-08T02:52:26;18.10;78.10
29321;DHT22;16323;51.130;6.612;2023-01-08T02:54:56;18.10;78.30
29321;DHT22;16323;51.130;6.612;2023-01-08T02:57:40;18.10;78.20
29321;DHT22;16323;51.130;6.612;2023-01-08T03:00:08;18.10;78.80
29321;DHT22;16323;51.130;6.612;2023-01-08T03:02:37;18.10;78.80
29321;DHT22;16323;51.130;6.612;2023-01-08T03:05:12;18.10;78.70
29321;DHT22;16323;51.130;6.612;2023-01-08T03:07:39;18.10;78.90
29321;DHT22;16323;51.130;6.612;2023-01-08T03:10:07;18.10;78.60
29321;DHT22;16323;51.130;6.612;2023-01-08T03:12:46;18.10;78.70
29321;DHT22;16323;51.130;6.612;2023-01-08T03:15:20;18.10;78.60
29321;DHT22;16323;51.130;6.612;2023-01-08T03:17:50;18.20;78.60
29321;DHT22;16323;51.130;6.612;2023-01-08T03:20:20;18.20;78.60
29321;DHT22;16323;51.130;6.612;2023-01-08T03:22:50;18.20;78.50
29321;DHT22;16323;51.130;6.612;2023-01-08T03:25:19;18.20;78.70
29321;DHT22;16323;51.130;6.612;2023-01-08T03:27:51;18.20;78.50
29321;DHT22;16323;51.130;6.612;2023-01-08T03:30:20;18.20;78.50
29321;DHT22;16323;51.130;6.612;2023-01-08T03:32:49;18.20;78.20
29321;DHT22;16323;51.130;6.612;2023-01-08T03:35:19;18.20;78.30
29321;DHT22;16323;51.130;6.612;2023-01-08T03:37:51;18.10;78.30
29321;DHT22;16323;51.130;6.612;2023-01-08T03:40:23;18.10;78.00
29321;DHT22;16323;51.130;6.612;2023-01-08T03:42:52;18.10;78.20
29321;DHT22;16323;51.130;6.612;2023-01-08T03:45:21;18.10;78.10
29321;DHT22;16323;51.130;6.612;2023-01-08T03:47:49;18.10;78.20
29321;DHT22;16323;51.130;6.612;2023-01-08T03:50:20;18.10;78.20
29321;DHT22;16323;51.130;6.612;2023-01-08T03:52:49;18.10;78.10
29321;DHT22;16323;51.130;6.612;2023-01-08T03:55:16;18.10;78.00
29321;DHT22;16323;51.130;6.612;2023-01-08T03:57:43;18.10;77.80
29321;DHT22;16323;51.130;6.612;2023-01-08T04:00:12;18.10;78.00
29321;DHT22;16323;51.130;6.612;2023-01-08T04:02:39;18.10;78.20
29321;DHT22;16323;51.130;6.612;2023-01-08T04:05:07;18.10;78.30
29321;DHT22;16323;51.130;6.612;2023-01-08T04:07:34;18.10;78.20
29321;DHT22;16323;51.130;6.612;2023-01-08T04:10:01;18.20;78.20
29321;DHT22;16323;51.130;6.612;2023-01-08T04:12:28;18.20;78.20
29321;DHT22;16323;51.130;6.612;2023-01-08T04:14:55;18.20;78.30
29321;DHT22;16323;51.130;6.612;2023-01-08T04:17:23;18.20;77.80
29321;DHT22;16323;51.130;6.612;2023-01-08T04:19:49;18.20;77.70
29321;DHT22;16323;51.130;6.612;2023-01-08T04:22:16;18.10;77.50
29321;DHT22;16323;51.130;6.612;2023-01-08T04:24:43;18.20;77.70
29321;DHT22;16323;51.130;6.612;2023-01-08T04:27:10;18.20;78.00
29321;DHT22;16323;51.130;6.612;2023-01-08T04:29:36;18.20;77.80
29321;DHT22;16323;51.130;6.612;2023-01-08T04:32:03;18.20;77.70
29321;DHT22;16323;51.130;6.612;2023-01-08T04:34:32;18.20;77.40
29321;DHT22;16323;51.130;6.612;2023-01-08T04:36:58;18.20;77.30
29321;DHT22;16323;51.130;6.612;2023-01-08T04:39:26;18.10;77.30
29321;DHT22;16323;51.130;6.612;2023-01-08T04:41:53;18.20;77.40
29321;DHT22;16323;51.130;6.612;2023-01-08T04:44:20;18.10;76.60
29321;DHT22;16323;51.130;6.612;2023-01-08T04:46:46;18.10;76.60
29321;DHT22;16323;51.130;6.612;2023-01-08T04:49:13;18.10;76.60
29321;DHT22;16323;51.130;6.612;2023-01-08T04:51:41;18.10;77.00
29321;DHT22;16323;51.130;6.612;2023-01-08T04:54:08;18.10;77.00
29321;DHT22;16323;51.130;6.612;2023-01-08T04:56:35;18.10;77.00
29321;DHT22;16323;51.130;6.612;2023-01-08T04:59:02;18.10;76.60
29321;DHT22;16323;51.130;6.612;2023-01-08T05:01:29;18.10;76.60
29321;DHT22;16323;51.130;6.612;2023-01-08T05:03:57;18.10;76.80
29321;DHT22;16323;51.130;6.612;2023-01-08T05:06:25;18.10;77.30
29321;DHT22;16323;51.130;6.612;2023-01-08T05:08:53;18.10;78.50
29321;DHT22;16323;51.130;6.612;2023-01-08T05:11:20;18.10;77.50
29321;DHT22;16323;51.130;6.612;2023-01-08T05:13:48;18.10;77.40
29321;DHT22;16323;51.130;6.612;2023-01-08T05:16:15;18.10;77.50
29321;DHT22;16323;51.130;6.612;2023-01-08T05:18:42;18.10;77.30
29321;DHT22;16323;51.130;6.612;2023-01-08T05:21:09;18.10;77.00
29321;DHT22;16323;51.130;6.612;2023-01-08T05:23:36;18.10;76.80
29321;DHT22;16323;51.130;6.612;2023-01-08T05:26:06;18.10;76.60
29321;DHT22;16323;51.130;6.612;2023-01-08T05:28:33;18.10;76.60
29321;DHT22;16323;51.130;6.612;2023-01-08T05:31:00;18.10;76.60
29321;DHT22;16323;51.130;6.612;2023-01-08T05:33:27;18.10;76.60
29321;DHT22;16323;51.130;6.612;2023-01-08T05:35:53;18.10;76.60
29321;DHT22;16323;51.130;6.612;2023-01-08T05:38:20;18.10;76.60
29321;DHT22;16323;51.130;6.612;2023-01-08T05:40:50;18.10;76.60
29321;DHT22;16323;51.130;6.612;2023-01-08T05:43:18;18.10;76.60
29321;DHT22;16323;51.130;6.612;2023-01-08T05:45:45;18.10;76.60
29321;DHT22;16323;51.130;6.612;2023-01-08T05:48:12;18.10;75.90
29321;DHT22;16323;51.130;6.612;2023-01-08T05:50:38;18.10;76.20
29321;DHT22;16323;51.130;6.612;2023-01-08T05:53:06;18.00;76.00
29321;DHT22;16323;51.130;6.612;2023-01-08T05:55:33;18.10;75.70
29321;DHT22;16323;51.130;6.612;2023-01-08T05:58:00;18.10;75.90
29321;DHT22;16323;51.130;6.612;2023-01-08T06:00:29;18.00;75.60
29321;DHT22;16323;51.130;6.612;2023-01-08T06:02:56;18.00;75.60
29321;DHT22;16323;51.130;6.612;2023-01-08T06:05:23;18.00;75.40
29321;DHT22;16323;51.130;6.612;2023-01-08T06:07:50;18.10;76.10
29321;DHT22;16323;51.130;6.612;2023-01-08T06:10:17;18.10;76.40
29321;DHT22;16323;51.130;6.612;2023-01-08T06:12:44;18.10;76.60
29321;DHT22;16323;51.130;6.612;2023-01-08T06:15:11;18.10;76.50
29321;DHT22;16323;51.130;6.612;2023-01-08T06:17:39;18.10;76.60
29321;DHT22;16323;51.130;6.612;2023-01-08T06:20:07;18.20;76.70
29321;DHT22;16323;51.130;6.612;2023-01-08T06:22:35;18.20;76.60
29321;DHT22;16323;51.130;6.612;2023-01-08T06:25:02;18.10;76.60
29321;DHT22;16323;51.130;6.612;2023-01-08T06:27:29;18.10;76.60
29321;DHT22;16323;51.130;6.612;2023-01-08T06:29:56;18.20;76.70
29321;DHT22;16323;51.130;6.612;2023-01-08T06:32:23;18.10;77.60
29321;DHT22;16323;51.130;6.612;2023-01-08T06:34:51;18.10;76.60
29321;DHT22;16323;51.130;6.612;2023-01-08T06:37:18;18.20;76.60
29321;DHT22;16323;51.130;6.612;2023-01-08T06:39:45;18.10;76.60
29321;DHT22;16323;51.130;6.612;2023-01-08T06:42:11;18.10;76.60
29321;DHT22;16323;51.130;6.612;2023-01-08T06:44:38;18.10;76.60
29321;DHT22;16323;51.130;6.612;2023-01-08T06:47:05;18.10;76.60
29321;DHT22;16323;51.130;6.612;2023-01-08T06:49:32;18.10;76.60
29321;DHT22;16323;51.130;6.612;2023-01-08T06:52:00;18.10;76.60
29321;DHT22;16323;51.130;6.612;2023-01-08T06:54:27;18.10;76.60
29321;DHT22;16323;51.130;6.612;2023-01-08T06:56:53;18.10;76.60
29321;DHT22;16323;51.130;6.612;2023-01-08T06:59:20;18.10;76.60
29321;DHT22;16323;51.130;6.612;2023-01-08T07:01:47;18.10;76.60
29321;DHT22;16323;51.130;6.612;2023-01-08T07:04:15;18.10;76.60
29321;DHT22;16323;51.130;6.612;2023-01-08T07:06:42;18.10;76.60
29321;DHT22;16323;51.130;6.612;2023-01-08T07:09:11;18.10;76.60
29321;DHT22;16323;51.130;6.612;2023-01-08T07:11:38;18.10;76.60
29321;DHT22;16323;51.130;6.612;2023-01-08T07:14:05;18.10;76.60
29321;DHT22;16323;51.130;6.612;2023-01-08T07:16:34;18.10;76.60
29321;DHT22;16323;51.130;6.612;2023-01-08T07:19:01;18.10;76.60
29321;DHT22;16323;51.130;6.612;2023-01-08T07:21:28;18.10;76.60
29321;DHT22;16323;51.130;6.612;2023-01-08T07:23:55;18.10;76.60
29321;DHT22;16323;51.130;6.612;2023-01-08T07:26:25;18.20;76.60
29321;DHT22;16323;51.130;6.612;2023-01-08T07:28:52;18.20;76.60
29321;DHT22;16323;51.130;6.612;2023-01-08T07:31:19;18.20;76.70
29321;DHT22;16323;51.130;6.612;2023-01-08T07:33:46;18.10;76.60
29321;DHT22;16323;51.130;6.612;2023-01-08T07:36:12;18.20;76.70
29321;DHT22;16323;51.130;6.612;2023-01-08T07:38:40;18.20;76.70
29321;DHT22;16323;51.130;6.612;2023-01-08T07:41:07;18.10;76.60
29321;DHT22;16323;51.130;6.612;2023-01-08T07:43:35;18.20;76.70
29321;DHT22;16323;51.130;6.612;2023-01-08T07:46:02;18.10;76.60
29321;DHT22;16323;51.130;6.612;2023-01-08T07:48:29;18.10;76.60
29321;DHT22;16323;51.130;6.612;2023-01-08T07:51:00;18.10;76.60
29321;DHT22;16323;51.130;6.612;2023-01-08T07:53:27;18.10;76.60
29321;DHT22;16323;51.130;6.612;2023-01-08T07:55:58;18.10;77.60
29321;DHT22;16323;51.130;6.612;2023-01-08T07:58:25;18.10;76.50
29321;DHT22;16323;51.130;6.612;2023-01-08T08:00:54;18.10;75.80
29321;DHT22;16323;51.130;6.612;2023-01-08T08:03:21;18.10;75.60
29321;DHT22;16323;51.130;6.612;2023-01-08T08:05:48;18.10;75.20
29321;DHT22;16323;51.130;6.612;2023-01-08T08:08:16;18.00;74.90
29321;DHT22;16323;51.130;6.612;2023-01-08T08:10:43;18.00;74.50
29321;DHT22;16323;51.130;6.612;2023-01-08T08:13:10;18.00;74.50
29321;DHT22;16323;51.130;6.612;2023-01-08T08:15:38;18.00;74.70
29321;DHT22;16323;51.130;6.612;2023-01-08T08:18:07;18.00;74.40
29321;DHT22;16323;51.130;6.612;2023-01-08T08:20:34;18.00;74.50
29321;DHT22;16323;51.130;6.612;2023-01-08T08:23:01;18.00;74.30
29321;DHT22;16323;51.130;6.612;2023-01-08T08:25:28;18.00;74.30
29321;DHT22;16323;51.130;6.612;2023-01-08T08:27:55;18.00;74.10
29321;DHT22;16323;51.130;6.612;2023-01-08T08:30:23;18.00;73.90
29321;DHT22;16323;51.130;6.612;2023-01-08T08:32:50;18.00;73.70
29321;DHT22;16323;51.130;6.612;2023-01-08T08:35:18;18.00;73.60
29321;DHT22;16323;51.130;6.612;2023-01-08T08:37:45;18.00;73.30
29321;DHT22;16323;51.130;6.612;2023-01-08T08:40:12;18.00;73.20
29321;DHT22;16323;51.130;6.612;2023-01-08T08:42:39;18.00;73.10
29321;DHT22;16323;51.130;6.612;2023-01-08T08:45:06;18.00;72.80
29321;DHT22;16323;51.130;6.612;2023-01-08T08:47:33;18.00;72.80
29321;DHT22;16323;51.130;6.612;2023-01-08T08:50:00;17.90;72.80
29321;DHT22;16323;51.130;6.612;2023-01-08T08:52:30;17.90;73.30
29321;DHT22;16323;51.130;6.612;2023-01-08T08:54:57;17.90;73.30
29321;DHT22;16323;51.130;6.612;2023-01-08T08:57:24;17.90;73.40
29321;DHT22;16323;51.130;6.612;2023-01-08T08:59:51;17.90;73.30
29321;DHT22;16323;51.130;6.612;2023-01-08T09:02:18;17.90;73.40
29321;DHT22;16323;51.130;6.612;2023-01-08T09:04:45;17.90;73.30
29321;DHT22;16323;51.130;6.612;2023-01-08T09:07:11;17.90;73.30
29321;DHT22;16323;51.130;6.612;2023-01-08T09:09:40;17.90;73.40
29321;DHT22;16323;51.130;6.612;2023-01-08T09:12:07;17.90;73.40
29321;DHT22;16323;51.130;6.612;2023-01-08T09:14:34;17.90;73.60
29321;DHT22;16323;51.130;6.612;2023-01-08T09:17:01;17.90;73.70
29321;DHT22;16323;51.130;6.612;2023-01-08T09:19:28;18.00;74.10
29321;DHT22;16323;51.130;6.612;2023-01-08T09:21:54;18.00;74.20
29321;DHT22;16323;51.130;6.612;2023-01-08T09:24:21;18.00;74.20
29321;DHT22;16323;51.130;6.612;2023-01-08T09:26:51;18.00;74.00
29321;DHT22;16323;51.130;6.612;2023-01-08T09:29:18;18.00;74.10
29321;DHT22;16323;51.130;6.612;2023-01-08T09:31:45;18.00;74.10
29321;DHT22;16323;51.130;6.612;2023-01-08T09:34:12;18.00;74.50
29321;DHT22;16323;51.130;6.612;2023-01-08T09:36:39;18.00;74.40
29321;DHT22;16323;51.130;6.612;2023-01-08T09:39:05;18.00;74.20
29321;DHT22;16323;51.130;6.612;2023-01-08T09:41:34;18.00;74.30
29321;DHT22;16323;51.130;6.612;2023-01-08T09:44:04;18.00;74.50
29321;DHT22;16323;51.130;6.612;2023-01-08T09:46:32;18.10;74.40
29321;DHT22;16323;51.130;6.612;2023-01-08T09:49:04;18.10;74.40
29321;DHT22;16323;51.130;6.612;2023-01-08T09:51:33;18.10;74.50
29321;DHT22;16323;51.130;6.612;2023-01-08T09:54:01;18.10;74.30
29321;DHT22;16323;51.130;6.612;2023-01-08T09:56:29;18.10;74.30
29321;DHT22;16323;51.130;6.612;2023-01-08T09:58:59;18.10;75.00
29321;DHT22;16323;51.130;6.612;2023-01-08T10:01:29;18.10;74.30
29321;DHT22;16323;51.130;6.612;2023-01-08T10:04:02;18.10;74.50
29321;DHT22;16323;51.130;6.612;2023-01-08T10:06:30;18.10;74.30
29321;DHT22;16323;51.130;6.612;2023-01-08T10:08:57;18.10;74.20
29321;DHT22;16323;51.130;6.612;2023-01-08T10:11:27;18.10;74.30
29321;DHT22;16323;51.130;6.612;2023-01-08T10:13:56;18.10;74.30
29321;DHT22;16323;51.130;6.612;2023-01-08T10:16:28;18.10;74.30
29321;DHT22;16323;51.130;6.612;2023-01-08T10:18:56;18.10;74.40
29321;DHT22;16323;51.130;6.612;2023-01-08T10:21:28;18.10;74.30
29321;DHT22;16323;51.130;6.612;2023-01-08T10:23:55;18.10;74.30
29321;DHT22;16323;51.130;6.612;2023-01-08T10:26:29;18.10;74.50
29321;DHT22;16323;51.130;6.612;2023-01-08T10:29:08;18.10;74.30
29321;DHT22;16323;51.130;6.612;2023-01-08T10:31:44;18.10;74.40
29321;DHT22;16323;51.130;6.612;2023-01-08T10:34:21;18.10;74.40
29321;DHT22;16323;51.130;6.612;2023-01-08T10:36:49;18.10;74.20
29321;DHT22;16323;51.130;6.612;2023-01-08T10:39:21;18.10;74.30
29321;DHT22;16323;51.130;6.612;2023-01-08T10:41:50;18.10;74.40
29321;DHT22;16323;51.130;6.612;2023-01-08T10:44:19;18.10;74.60
29321;DHT22;16323;51.130;6.612;2023-01-08T10:46:50;18.10;74.70
29321;DHT22;16323;51.130;6.612;2023-01-08T10:49:24;18.10;74.70
29321;DHT22;16323;51.130;6.612;2023-01-08T10:51:53;18.20;74.60
29321;DHT22;16323;51.130;6.612;2023-01-08T10:54:28;18.20;74.60
29321;DHT22;16323;51.130;6.612;2023-01-08T10:56:56;18.20;74.60
29321;DHT22;16323;51.130;6.612;2023-01-08T10:59:24;18.20;74.50
29321;DHT22;16323;51.130;6.612;2023-01-08T11:01:54;18.20;74.60
29321;DHT22;16323;51.130;6.612;2023-01-08T11:04:25;18.20;74.50
29321;DHT22;16323;51.130;6.612;2023-01-08T11:06:54;18.20;74.50
29321;DHT22;16323;51.130;6.612;2023-01-08T11:09:27;18.20;74.70
29321;DHT22;16323;51.130;6.612;2023-01-08T11:11:55;18.20;74.50
29321;DHT22;16323;51.130;6.612;2023-01-08T11:14:25;18.20;74.60
29321;DHT22;16323;51.130;6.612;2023-01-08T11:16:55;18.20;74.50
29321;DHT22;16323;51.130;6.612;2023-01-08T11:19:24;18.20;74.50
29321;DHT22;16323;51.130;6.612;2023-01-08T11:21:56;18.20;74.50
29321;DHT22;16323;51.130;6.612;2023-01-08T11:24:26;18.20;74.50
29321;DHT22;16323;51.130;6.612;2023-01-08T11:26:58;18.30;74.50
29321;DHT22;16323;51.130;6.612;2023-01-08T11:29:30;18.20;74.50
29321;DHT22;16323;51.130;6.612;2023-01-08T11:32:15;18.20;74.40
29321;DHT22;16323;51.130;6.612;2023-01-08T11:34:52;18.20;74.50
29321;DHT22;16323;51.130;6.612;2023-01-08T11:37:22;18.20;74.40
29321;DHT22;16323;51.130;6.612;2023-01-08T11:39:50;18.20;74.40
29321;DHT22;16323;51.130;6.612;2023-01-08T11:42:32;18.20;74.50
29321;DHT22;16323;51.130;6.612;2023-01-08T11:45:12;18.20;74.30
29321;DHT22;16323;51.130;6.612;2023-01-08T11:47:55;18.20;74.30
29321;DHT22;16323;51.130;6.612;2023-01-08T11:50:27;18.20;74.30
29321;DHT22;16323;51.130;6.612;2023-01-08T11:53:04;18.20;74.30
29321;DHT22;16323;51.130;6.612;2023-01-08T11:55:44;18.20;74.30
29321;DHT22;16323;51.130;6.612;2023-01-08T11:58:25;18.10;74.10
29321;DHT22;16323;51.130;6.612;2023-01-08T12:01:08;18.20;74.40
29321;DHT22;16323;51.130;6.612;2023-01-08T12:03:42;18.10;74.40
29321;DHT22;16323;51.130;6.612;2023-01-08T12:06:21;18.10;74.50
29321;DHT22;16323;51.130;6.612;2023-01-08T12:09:02;18.20;74.40
29321;DHT22;16323;51.130;6.612;2023-01-08T12:11:38;18.20;74.50
29321;DHT22;16323;51.130;6.612;2023-01-08T12:14:31;18.20;74.40
29321;DHT22;16323;51.130;6.612;2023-01-08T12:17:31;18.20;74.40
29321;DHT22;16323;51.130;6.612;2023-01-08T12:20:14;18.20;74.50
29321;DHT22;16323;51.130;6.612;2023-01-08T12:22:46;18.20;74.50
29321;DHT22;16323;51.130;6.612;2023-01-08T12:25:25;18.20;74.40
29321;DHT22;16323;51.130;6.612;2023-01-08T12:28:13;18.20;74.40
29321;DHT22;16323;51.130;6.612;2023-01-08T12:31:07;18.20;74.60
29321;DHT22;16323;51.130;6.612;2023-01-08T12:33:40;18.20;74.60
29321;DHT22;16323;51.130;6.612;2023-01-08T12:36:14;18.20;74.60
29321;DHT22;16323;51.130;6.612;2023-01-08T12:38:44;18.20;74.70
29321;DHT22;16323;51.130;6.612;2023-01-08T12:41:17;18.20;74.70
29321;DHT22;16323;51.130;6.612;2023-01-08T12:43:55;18.10;74.50
29321;DHT22;16323;51.130;6.612;2023-01-08T12:46:26;18.10;74.50
29321;DHT22;16323;51.130;6.612;2023-01-08T12:48:54;18.20;74.50
29321;DHT22;16323;51.130;6.612;2023-01-08T12:51:30;18.20;74.60
29321;DHT22;16323;51.130;6.612;2023-01-08T12:54:05;18.20;74.60
29321;DHT22;16323;51.130;6.612;2023-01-08T12:56:40;18.20;74.60
29321;DHT22;16323;51.130;6.612;2023-01-08T12:59:15;18.20;74.70
29321;DHT22;16323;51.130;6.612;2023-01-08T13:01:48;18.20;74.80
29321;DHT22;16323;51.130;6.612;2023-01-08T13:04:16;18.20;74.50
29321;DHT22;16323;51.130;6.612;2023-01-08T13:06:59;18.20;74.60
29321;DHT22;16323;51.130;6.612;2023-01-08T13:09:27;18.20;74.60
29321;DHT22;16323;51.130;6.612;2023-01-08T13:11:57;18.20;74.50
29321;DHT22;16323;51.130;6.612;2023-01-08T13:14:24;18.20;74.40
29321;DHT22;16323;51.130;6.612;2023-01-08T13:17:05;18.20;74.50
29321;DHT22;16323;51.130;6.612;2023-01-08T13:19:38;18.20;74.20
29321;DHT22;16323;51.130;6.612;2023-01-08T13:22:21;18.20;74.30
29321;DHT22;16323;51.130;6.612;2023-01-08T13:24:49;18.20;74.30
29321;DHT22;16323;51.130;6.612;2023-01-08T13:27:27;18.20;74.20
29321;DHT22;16323;51.130;6.612;2023-01-08T13:29:55;18.20;74.20
29321;DHT22;16323;51.130;6.612;2023-01-08T13:32:40;18.20;74.20
29321;DHT22;16323;51.130;6.612;2023-01-08T13:35:21;18.20;74.20
29321;DHT22;16323;51.130;6.612;2023-01-08T13:37:51;18.20;74.20
29321;DHT22;16323;51.130;6.612;2023-01-08T13:40:50;18.20;74.10
29321;DHT22;16323;51.130;6.612;2023-01-08T13:43:20;18.20;74.20
29321;DHT22;16323;51.130;6.612;2023-01-08T13:45:53;18.10;74.10
29321;DHT22;16323;51.130;6.612;2023-01-08T13:48:22;18.10;74.20
29321;DHT22;16323;51.130;6.612;2023-01-08T13:50:50;18.10;74.00
29321;DHT22;16323;51.130;6.612;2023-01-08T13:53:19;18.10;73.60
29321;DHT22;16323;51.130;6.612;2023-01-08T13:55:54;18.10;73.70
29321;DHT22;16323;51.130;6.612;2023-01-08T13:58:25;18.20;73.90
29321;DHT22;16323;51.130;6.612;2023-01-08T14:00:53;18.20;73.90
29321;DHT22;16323;51.130;6.612;2023-01-08T14:03:25;18.20;73.80
29321;DHT22;16323;51.130;6.612;2023-01-08T14:06:03;18.20;73.80
29321;DHT22;16323;51.130;6.612;2023-01-08T14:08:31;18.20;73.90
29321;DHT22;16323;51.130;6.612;2023-01-08T14:10:58;18.20;73.80
29321;DHT22;16323;51.130;6.612;2023-01-08T14:13:27;18.20;73.80
29321;DHT22;16323;51.130;6.612;2023-01-08T14:15:58;18.20;73.80
29321;DHT22;16323;51.130;6.612;2023-01-08T14:18:26;18.20;73.70
29321;DHT22;16323;51.130;6.612;2023-01-08T14:20:54;18.20;73.60
29321;DHT22;16323;51.130;6.612;2023-01-08T14:23:23;18.20;73.50
29321;DHT22;16323;51.130;6.612;2023-01-08T14:25:53;18.20;73.50
29321;DHT22;16323;51.130;6.612;2023-01-08T14:28:21;18.20;73.50
29321;DHT22;16323;51.130;6.612;2023-01-08T14:30:49;18.20;73.50
29321;DHT22;16323;51.130;6.612;2023-01-08T14:33:16;18.20;73.50
29321;DHT22;16323;51.130;6.612;2023-01-08T14:35:44;18.20;73.60
29321;DHT22;16323;51.130;6.612;2023-01-08T14:38:13;18.10;73.30
29321;DHT22;16323;51.130;6.612;2023-01-08T14:40:42;18.10;73.30
29321;DHT22;16323;51.130;6.612;2023-01-08T14:43:13;18.20;73.30
29321;DHT22;16323;51.130;6.612;2023-01-08T14:45:45;18.10;73.20
29321;DHT22;16323;51.130;6.612;2023-01-08T14:48:17;18.10;73.20
29321;DHT22;16323;51.130;6.612;2023-01-08T14:51:00;18.10;73.40
29321;DHT22;16323;51.130;6.612;2023-01-08T14:53:30;18.10;73.10
29321;DHT22;16323;51.130;6.612;2023-01-08T14:55:58;18.20;73.40
29321;DHT22;16323;51.130;6.612;2023-01-08T14:58:29;18.20;73.30
29321;DHT22;16323;51.130;6.612;2023-01-08T15:01:02;18.20;73.30
29321;DHT22;16323;51.130;6.612;2023-01-08T15:03:33;18.20;73.30
29321;DHT22;16323;51.130;6.612;2023-01-08T15:06:00;18.20;73.30
29321;DHT22;16323;51.130;6.612;2023-01-08T15:08:33;18.20;73.20
29321;DHT22;16323;51.130;6.612;2023-01-08T15:11:02;18.20;73.30
29321;DHT22;16323;51.130;6.612;2023-01-08T15:13:32;18.20;73.20
29321;DHT22;16323;51.130;6.612;2023-01-08T15:16:04;18.20;73.30
29321;DHT22;16323;51.130;6.612;2023-01-08T15:18:35;18.20;72.90
29321;DHT22;16323;51.130;6.612;2023-01-08T15:21:06;18.10;72.50
29321;DHT22;16323;51.130;6.612;2023-01-08T15:23:37;18.10;72.30
29321;DHT22;16323;51.130;6.612;2023-01-08T15:26:09;18.10;72.40
29321;DHT22;16323;51.130;6.612;2023-01-08T15:28:37;18.20;72.50
29321;DHT22;16323;51.130;6.612;2023-01-08T15:31:09;18.10;72.30
29321;DHT22;16323;51.130;6.612;2023-01-08T15:33:36;18.10;72.40
29321;DHT22;16323;51.130;6.612;2023-01-08T15:36:04;18.10;72.30
29321;DHT22;16323;51.130;6.612;2023-01-08T15:38:31;18.10;72.30
29321;DHT22;16323;51.130;6.612;2023-01-08T15:40:58;18.10;72.10
29321;DHT22;16323;51.130;6.612;2023-01-08T15:43:25;18.10;72.20
29321;DHT22;16323;51.130;6.612;2023-01-08T15:45:52;18.10;71.90
29321;DHT22;16323;51.130;6.612;2023-01-08T15:48:19;18.10;72.10